createdAt,value
2023-05-04T00:00:02.057Z,4.361877
2023-05-04T00:03:27.295Z,4.341736
2023-05-04T00:06:52.448Z,4.321594
2023-05-04T00:10:17.656Z,4.261169
2023-05-04T00:13:42.894Z,4.230957
2023-05-04T00:17:08.206Z,4.200745
2023-05-04T00:20:33.353Z,4.241028
2023-05-04T00:23:58.617Z,4.220886
2023-05-04T00:27:23.796Z,4.230957
2023-05-04T00:30:49.092Z,4.180603
2023-05-04T00:34:14.335Z,4.150391
2023-05-04T00:37:39.575Z,4.200745
2023-05-04T00:41:04.795Z,4.261169
2023-05-04T00:44:30.021Z,4.261169
2023-05-04T00:47:55.342Z,4.220886
2023-05-04T00:51:20.511Z,4.220886
2023-05-04T00:54:45.710Z,4.230957
2023-05-04T00:58:10.950Z,4.220886
2023-05-04T01:01:36.173Z,4.261169
2023-05-04T01:05:01.384Z,4.261169
2023-05-04T01:08:26.596Z,4.291382
2023-05-04T01:11:51.794Z,4.291382
2023-05-04T01:15:17.028Z,4.261169
2023-05-04T01:18:42.250Z,4.27124
2023-05-04T01:22:07.566Z,4.261169
2023-05-04T01:25:32.738Z,4.301453
2023-05-04T01:28:57.982Z,4.361877
2023-05-04T01:32:23.212Z,4.331665
2023-05-04T01:35:48.387Z,4.341736
2023-05-04T01:39:13.611Z,4.261169
2023-05-04T01:42:38.786Z,4.261169
2023-05-04T01:46:04.040Z,4.230957
2023-05-04T01:49:29.225Z,4.200745
2023-05-04T01:52:54.457Z,4.150391
2023-05-04T01:56:19.759Z,4.110107
2023-05-04T01:59:44.984Z,4.120178
2023-05-04T02:03:10.306Z,4.180603
2023-05-04T02:06:35.439Z,4.230957
2023-05-04T02:10:00.644Z,4.27124
2023-05-04T02:13:25.879Z,4.241028
2023-05-04T02:16:51.059Z,4.321594
2023-05-04T02:20:16.275Z,4.321594
2023-05-04T02:23:41.528Z,4.341736
2023-05-04T02:27:06.749Z,4.371948
2023-05-04T02:30:32.131Z,4.371948
2023-05-04T02:33:57.301Z,4.402161
2023-05-04T02:37:22.574Z,4.422302
2023-05-04T02:40:47.867Z,4.422302
2023-05-04T02:44:13.066Z,4.472656
2023-05-04T02:47:38.419Z,4.482727
2023-05-04T02:51:03.536Z,4.512939
2023-05-04T02:54:28.756Z,4.553223
2023-05-04T02:57:54.039Z,4.633789
2023-05-04T03:01:19.273Z,4.633789
2023-05-04T03:04:44.688Z,4.653931
2023-05-04T03:08:09.674Z,4.603577
2023-05-04T03:11:34.885Z,4.623718
2023-05-04T03:15:00.144Z,4.623718
2023-05-04T03:18:25.369Z,4.623718
2023-05-04T03:21:50.630Z,4.583435
2023-05-04T03:25:15.789Z,4.623718
2023-05-04T03:28:40.962Z,4.653931
2023-05-04T03:32:06.293Z,4.623718
2023-05-04T03:35:31.502Z,4.653931
2023-05-04T03:38:56.830Z,4.633789
2023-05-04T03:42:22.031Z,4.694214
2023-05-04T03:45:47.292Z,4.734497
2023-05-04T03:49:12.496Z,4.754639
2023-05-04T03:52:37.695Z,4.784851
2023-05-04T03:56:02.972Z,4.77478
2023-05-04T03:59:29.103Z,4.754639
2023-05-04T04:02:54.461Z,4.724426
2023-05-04T04:06:19.594Z,4.815063
2023-05-04T04:09:44.801Z,4.855347
2023-05-04T04:13:10.196Z,4.935913
2023-05-04T04:16:35.348Z,4.996338
2023-05-04T04:20:00.520Z,5.02655
2023-05-04T04:23:25.724Z,5.016479
2023-05-04T04:26:50.944Z,5.086975
2023-05-04T04:30:16.146Z,5.1474
2023-05-04T04:33:41.308Z,5.298462
2023-05-04T04:37:06.526Z,5.389099
2023-05-04T04:40:31.720Z,5.489807
2023-05-04T04:43:56.972Z,5.65094
2023-05-04T04:47:22.189Z,5.90271
2023-05-04T04:50:47.389Z,6.144409
2023-05-04T04:54:12.596Z,6.365967
2023-05-04T04:57:37.797Z,6.617737
2023-05-04T05:01:03.093Z,6.809082
2023-05-04T05:04:28.373Z,6.950073
2023-05-04T05:07:53.534Z,7.060852
2023-05-04T05:11:18.799Z,7.211914
2023-05-04T05:14:43.983Z,7.28241
2023-05-04T05:18:09.221Z,7.393188
2023-05-04T05:21:34.432Z,7.373047
2023-05-04T05:24:59.643Z,7.433472
2023-05-04T05:28:24.838Z,7.554321
2023-05-04T05:31:50.026Z,7.644958
2023-05-04T05:35:15.230Z,7.705383
2023-05-04T05:38:40.555Z,7.78595
2023-05-04T05:42:05.642Z,7.856445
2023-05-04T05:45:30.880Z,7.926941
2023-05-04T05:48:56.089Z,8.03772
2023-05-04T05:52:21.335Z,8.118286
2023-05-04T05:55:46.536Z,8.339844
2023-05-04T05:59:11.726Z,8.531189
2023-05-04T06:02:36.968Z,8.79303
2023-05-04T06:06:02.125Z,8.954163
2023-05-04T06:09:27.360Z,9.105225
2023-05-04T06:12:52.708Z,9.256287
2023-05-04T06:16:17.792Z,9.42749
2023-05-04T06:19:42.946Z,9.67926
2023-05-04T06:23:08.193Z,9.830322
2023-05-04T06:26:33.377Z,10.021667
2023-05-04T06:29:58.612Z,10.1828
2023-05-04T06:33:23.833Z,10.414429
2023-05-04T06:36:49.030Z,10.404358
2023-05-04T06:40:14.327Z,10.404358
2023-05-04T06:43:39.475Z,10.414429
2023-05-04T06:47:04.709Z,10.384216
2023-05-04T06:50:29.887Z,10.404358
2023-05-04T06:53:55.124Z,10.444641
2023-05-04T06:57:20.311Z,10.505066
2023-05-04T07:00:45.538Z,10.635986
2023-05-04T07:04:10.797Z,10.776978
2023-05-04T07:07:36.007Z,10.877686
2023-05-04T07:11:01.199Z,10.988464
2023-05-04T07:14:26.405Z,10.998535
2023-05-04T07:17:51.610Z,11.05896
2023-05-04T07:21:27.387Z,11.099243
2023-05-04T07:24:42.067Z,11.270447
2023-05-04T07:28:07.288Z,11.401367
2023-05-04T07:31:32.536Z,11.492004
2023-05-04T07:34:57.784Z,11.612854
2023-05-04T07:38:23.073Z,11.733704
2023-05-04T07:41:49.662Z,11.864624
2023-05-04T07:45:13.483Z,12.005615
2023-05-04T07:48:38.727Z,12.166748
2023-05-04T07:52:04.001Z,12.287598
2023-05-04T07:55:29.244Z,12.418518
2023-05-04T07:58:54.450Z,12.56958
2023-05-04T08:02:19.725Z,12.750854
2023-05-04T08:05:44.915Z,12.851562
2023-05-04T08:09:10.148Z,12.932129
2023-05-04T08:12:35.412Z,13.103333
2023-05-04T08:16:00.618Z,13.284607
2023-05-04T08:19:25.821Z,13.385315
2023-05-04T08:22:51.093Z,13.44574
2023-05-04T08:26:16.302Z,13.506165
2023-05-04T08:29:41.630Z,13.596802
2023-05-04T08:33:06.803Z,13.727722
2023-05-04T08:36:31.980Z,13.848572
2023-05-04T08:39:57.250Z,13.908997
2023-05-04T08:43:22.516Z,13.969421
2023-05-04T08:46:47.934Z,14.070129
2023-05-04T08:50:12.924Z,14.251404
2023-05-04T08:53:38.128Z,14.372253
2023-05-04T08:57:03.388Z,14.45282
2023-05-04T09:00:28.623Z,14.432678
2023-05-04T09:03:53.977Z,14.503174
2023-05-04T09:07:19.062Z,14.613953
2023-05-04T09:10:44.263Z,14.70459
2023-05-04T09:14:09.508Z,14.825439
2023-05-04T09:17:36.393Z,14.805298
2023-05-04T09:21:00.147Z,14.855652
2023-05-04T09:24:25.254Z,14.95636
2023-05-04T09:27:50.532Z,15.026855
2023-05-04T09:31:15.802Z,15.097351
2023-05-04T09:34:40.973Z,15.198059
2023-05-04T09:38:06.231Z,15.268555
2023-05-04T09:41:31.405Z,15.288696
2023-05-04T09:44:56.635Z,15.33905
2023-05-04T09:48:21.863Z,15.469971
2023-05-04T09:51:47.032Z,15.540466
2023-05-04T09:55:12.407Z,15.600891
2023-05-04T09:58:37.459Z,15.691528
2023-05-04T10:02:10.883Z,15.762024
2023-05-04T10:05:27.914Z,15.651245
2023-05-04T10:08:53.146Z,15.530396
2023-05-04T10:12:18.396Z,15.71167
2023-05-04T10:15:43.562Z,15.782166
2023-05-04T10:19:08.778Z,15.762024
2023-05-04T10:22:33.988Z,15.973511
2023-05-04T10:25:59.204Z,15.96344
2023-05-04T10:29:24.467Z,16.08429
2023-05-04T10:32:49.617Z,16.235352
2023-05-04T10:36:14.865Z,16.446838
2023-05-04T10:39:40.061Z,16.497192
2023-05-04T10:43:05.316Z,16.527405
2023-05-04T10:46:30.575Z,16.607971
2023-05-04T10:49:55.727Z,16.668396
2023-05-04T10:53:20.926Z,16.708679
2023-05-04T10:56:46.148Z,16.668396
2023-05-04T11:00:11.372Z,16.809387
2023-05-04T11:03:36.749Z,16.889954
2023-05-04T11:07:01.788Z,16.879883
2023-05-04T11:10:26.971Z,16.940308
2023-05-04T11:13:52.184Z,17.071228
2023-05-04T11:20:42.615Z,17.312927
2023-05-04T11:24:07.796Z,17.252502
2023-05-04T11:27:33.015Z,17.34314
2023-05-04T11:30:58.250Z,17.363281
2023-05-04T11:34:23.467Z,17.383423
2023-05-04T11:37:49.449Z,17.413635
2023-05-04T11:41:14.041Z,17.463989
2023-05-04T11:44:39.221Z,17.524414
2023-05-04T11:48:04.463Z,17.494202
2023-05-04T11:51:29.700Z,17.383423
2023-05-04T11:54:55.848Z,17.433777
2023-05-04T11:58:20.123Z,17.524414
2023-05-04T12:01:45.360Z,17.675476
2023-05-04T12:05:10.643Z,17.524414
2023-05-04T12:08:35.878Z,17.282715
2023-05-04T12:12:01.110Z,17.34314
2023-05-04T12:15:26.286Z,17.463989
2023-05-04T12:18:51.541Z,17.564697
2023-05-04T12:22:16.727Z,17.715759
2023-05-04T12:25:51.219Z,17.776184
2023-05-04T12:29:07.129Z,17.85675
2023-05-04T12:32:32.301Z,17.967529
2023-05-04T12:35:57.506Z,18.027954
2023-05-04T12:39:22.693Z,17.927246
2023-05-04T12:42:47.894Z,17.836609
2023-05-04T12:46:13.285Z,17.866821
2023-05-04T12:49:38.352Z,17.947388
2023-05-04T12:53:03.543Z,17.947388
2023-05-04T12:56:28.790Z,17.947388
2023-05-04T12:59:53.997Z,17.997742
2023-05-04T13:03:19.356Z,17.997742
2023-05-04T13:06:46.282Z,18.027954
2023-05-04T13:10:09.773Z,17.927246
2023-05-04T13:13:34.928Z,17.836609
2023-05-04T13:17:00.181Z,17.836609
2023-05-04T13:20:25.458Z,17.866821
2023-05-04T13:23:50.716Z,17.897034
2023-05-04T13:27:15.965Z,17.997742
2023-05-04T13:30:41.206Z,17.967529
2023-05-04T13:34:06.442Z,17.957458
2023-05-04T13:37:31.680Z,17.927246
2023-05-04T13:40:56.881Z,17.927246
2023-05-04T13:44:22.064Z,17.947388
2023-05-04T13:47:47.284Z,17.917175
2023-05-04T13:51:12.458Z,17.85675
2023-05-04T13:54:37.802Z,17.85675
2023-05-04T13:58:02.986Z,17.816467
2023-05-04T14:01:28.248Z,17.766113
2023-05-04T14:04:53.640Z,17.766113
2023-05-04T14:08:25.630Z,17.816467
2023-05-04T14:11:50.854Z,17.866821
2023-05-04T14:15:42.507Z,17.917175
2023-05-04T14:19:07.692Z,17.957458
2023-05-04T14:22:35.049Z,17.997742
2023-05-04T14:25:58.742Z,17.987671
2023-05-04T14:29:24.911Z,17.947388
2023-05-04T14:32:50.133Z,17.927246
2023-05-04T14:36:15.401Z,17.927246
2023-05-04T14:39:40.604Z,17.957458
2023-05-04T14:43:05.818Z,17.947388
2023-05-04T14:46:31.153Z,17.886963
2023-05-04T14:49:56.250Z,17.866821
2023-05-04T14:53:21.530Z,17.806396
2023-05-04T14:56:46.819Z,17.735901
2023-05-04T15:00:12.082Z,17.635193
2023-05-04T15:03:37.424Z,17.655334
2023-05-04T15:41:05.042Z,17.463989
2023-05-04T15:44:30.221Z,17.413635
2023-05-04T15:47:55.714Z,17.403564
2023-05-04T15:51:20.933Z,17.34314
2023-05-04T15:54:46.185Z,17.333069
2023-05-04T15:58:11.434Z,17.312927
2023-05-04T16:01:36.657Z,17.363281
2023-05-04T16:05:01.933Z,17.373352
2023-05-04T16:08:27.203Z,17.34314
2023-05-04T16:11:52.409Z,17.333069
2023-05-04T16:15:17.681Z,17.312927
2023-05-04T16:18:42.907Z,17.262573
2023-05-04T16:22:08.119Z,17.262573
2023-05-04T16:25:33.362Z,17.232361
2023-05-04T16:28:58.616Z,17.182007
2023-05-04T16:32:23.879Z,17.141724
2023-05-04T16:35:49.099Z,17.121582
2023-05-04T16:39:14.276Z,17.061157
2023-05-04T16:42:39.469Z,17.081299
2023-05-04T16:46:04.935Z,17.030945
2023-05-04T16:49:29.939Z,16.960449
2023-05-04T16:52:55.129Z,16.940308
2023-05-04T16:56:20.451Z,16.879883
2023-05-04T16:59:45.709Z,16.859741
2023-05-04T17:03:11.094Z,16.819458
2023-05-04T17:06:36.292Z,16.748962
2023-05-04T17:10:01.651Z,16.698608
2023-05-04T17:13:26.849Z,16.658325
2023-05-04T17:16:52.987Z,16.577759
2023-05-04T17:20:18.236Z,16.497192
2023-05-04T17:23:43.583Z,16.426697
2023-05-04T17:27:08.826Z,16.305847
2023-05-04T17:30:34.048Z,16.09436
2023-05-04T17:33:59.261Z,15.892944
2023-05-04T17:37:24.508Z,15.681458
2023-05-04T17:40:49.781Z,15.490112
2023-05-04T17:44:15.007Z,15.379333
2023-05-04T17:47:40.290Z,15.288696
2023-05-04T17:51:05.458Z,15.157776
2023-05-04T17:54:30.714Z,15.006714
2023-05-04T17:57:55.953Z,14.795227
2023-05-04T18:01:21.187Z,14.573669
2023-05-04T18:04:46.454Z,14.45282
2023-05-04T18:08:11.686Z,14.291687
2023-05-04T18:11:36.882Z,14.221191
2023-05-04T18:15:02.159Z,14.070129
2023-05-04T18:18:27.347Z,13.868713
2023-05-04T18:21:52.571Z,13.687439
2023-05-04T18:25:17.754Z,13.486023
2023-05-04T18:28:42.968Z,13.294678
2023-05-04T18:32:08.276Z,13.07312
2023-05-04T18:35:33.428Z,12.851562
2023-05-04T18:38:58.772Z,12.770996
2023-05-04T18:42:23.984Z,12.559509
2023-05-04T18:45:49.264Z,12.287598
2023-05-04T18:49:14.497Z,12.126465
2023-05-04T18:52:39.760Z,12.045898
2023-05-04T18:56:04.994Z,11.914978
2023-05-04T18:59:30.220Z,11.834412
2023-05-04T19:02:55.502Z,11.69342
2023-05-04T19:06:20.716Z,11.582642
2023-05-04T19:09:45.942Z,11.44165
2023-05-04T19:13:11.220Z,11.330872
2023-05-04T19:16:36.406Z,11.220093
2023-05-04T19:20:01.656Z,11.149597
2023-05-04T19:23:26.927Z,10.968323
2023-05-04T19:26:52.098Z,10.837402
2023-05-04T19:30:17.327Z,10.776978
2023-05-04T19:33:48.290Z,10.776978
2023-05-04T19:37:07.846Z,10.726624
2023-05-04T19:40:33.101Z,10.736694
2023-05-04T19:43:58.350Z,10.756836
2023-05-04T19:47:23.577Z,10.847473
2023-05-04T19:50:48.810Z,10.787048
2023-05-04T19:54:14.029Z,10.706482
2023-05-04T19:57:39.291Z,10.545349
2023-05-04T20:01:04.476Z,10.4245
2023-05-04T20:04:29.649Z,10.364075
2023-05-04T20:07:54.928Z,10.333862
2023-05-04T20:11:20.112Z,10.343933
2023-05-04T20:14:45.360Z,10.414429
2023-05-04T20:18:10.512Z,10.525208
2023-05-04T20:21:35.685Z,10.635986
2023-05-04T20:25:00.894Z,10.656128
2023-05-04T20:28:26.088Z,10.666199
2023-05-04T20:31:51.324Z,10.625916
2023-05-04T20:35:16.481Z,10.605774
2023-05-04T20:38:41.701Z,10.525208
2023-05-04T20:42:06.914Z,10.323792
2023-05-04T20:45:32.080Z,10.172729
2023-05-04T20:48:57.310Z,10.092163
2023-05-04T20:52:22.488Z,10.011597
2023-05-04T20:55:47.694Z,9.971313
2023-05-04T20:59:12.891Z,10.011597
2023-05-04T21:02:38.156Z,10.011597
2023-05-04T21:06:03.308Z,10.112305
2023-05-04T21:09:28.478Z,10.223083
2023-05-04T21:12:53.717Z,10.343933
2023-05-04T21:16:18.886Z,10.454712
2023-05-04T21:19:44.048Z,10.525208
2023-05-04T21:23:09.254Z,10.595703
2023-05-04T21:26:34.391Z,10.656128
2023-05-04T21:29:59.575Z,10.696411
2023-05-04T21:33:24.796Z,10.696411
2023-05-04T21:36:49.987Z,10.67627
2023-05-04T21:40:15.209Z,10.696411
2023-05-04T21:43:40.393Z,10.666199
2023-05-04T21:47:05.665Z,10.595703
2023-05-04T21:50:30.790Z,10.484924
2023-05-04T21:53:55.987Z,10.4245
2023-05-04T21:57:21.204Z,10.414429
2023-05-04T22:00:46.355Z,10.384216
2023-05-04T22:04:11.578Z,10.333862
2023-05-04T22:07:36.824Z,10.263367
2023-05-04T22:11:01.924Z,10.273438
2023-05-04T22:14:27.124Z,10.1828
2023-05-04T22:17:52.329Z,10.122375
2023-05-04T22:21:17.494Z,9.991455
2023-05-04T22:24:42.684Z,9.941101
2023-05-04T22:28:07.898Z,9.890747
2023-05-04T22:31:33.081Z,9.830322
2023-05-04T22:34:58.281Z,9.840393
2023-05-04T22:38:23.495Z,9.779968
2023-05-04T22:41:48.722Z,9.67926
2023-05-04T22:45:13.886Z,9.598694
2023-05-04T22:48:39.061Z,9.568481
2023-05-04T22:52:04.230Z,9.598694
2023-05-04T22:55:29.434Z,9.538269
2023-05-04T22:58:54.624Z,9.558411
2023-05-04T23:02:19.848Z,9.568481
2023-05-04T23:05:45.042Z,9.558411
2023-05-04T23:09:10.257Z,9.568481
2023-05-04T23:12:35.492Z,9.568481
2023-05-04T23:16:00.668Z,9.558411
2023-05-04T23:19:25.834Z,9.558411
2023-05-04T23:22:51.057Z,9.508057
2023-05-04T23:26:16.235Z,9.558411
2023-05-04T23:29:41.420Z,9.558411
2023-05-04T23:33:06.629Z,9.538269
2023-05-04T23:36:31.804Z,9.558411
2023-05-04T23:39:56.980Z,9.608765
2023-05-04T23:43:22.114Z,9.608765
2023-05-04T23:46:47.314Z,9.598694
2023-05-04T23:50:12.504Z,9.578552
2023-05-04T23:53:37.698Z,9.638977
2023-05-04T23:57:02.918Z,9.568481
